Time;durP1;ratioP1;P1;durP2;ratioP2;P2;SDS_P1;SDS_P2;PMS_P1;PMS_P2;Temp;Humidity;BMP_temperature;BMP_pressure;BME280_temperature;BME280_humidity;BME280_pressure;Samples;Min_cycle;Max_cycle;Signal;HPM_P1;HPM_P2
2022/03/16 00:01:44;;;;;;;7.55;6.25;;;9.30;99.90;;;;;;5054199;28;20937;-59
2022/03/16 00:04:11;;;;;;;8.55;5.90;;;9.30;99.90;;;;;;5053819;28;20540;-59
2022/03/16 00:06:38;;;;;;;7.53;5.93;;;9.30;99.90;;;;;;5061104;28;20455;-60
2022/03/16 00:09:05;;;;;;;7.85;5.80;;;9.30;99.90;;;;;;5074219;28;20491;-59
2022/03/16 00:11:33;;;;;;;9.27;6.50;;;9.40;99.90;;;;;;5074028;28;20503;-59
2022/03/16 00:14:00;;;;;;;9.47;6.80;;;9.40;99.90;;;;;;5074716;28;20514;-60
2022/03/16 00:16:27;;;;;;;10.70;7.38;;;9.40;99.90;;;;;;5058200;28;20433;-59
2022/03/16 00:18:54;;;;;;;9.68;6.65;;;9.40;99.90;;;;;;5054896;28;20794;-59
2022/03/16 00:21:21;;;;;;;11.50;7.30;;;9.40;99.90;;;;;;5054292;28;20480;-60
2022/03/16 00:23:48;;;;;;;10.00;7.03;;;9.30;99.90;;;;;;5055824;28;20499;-59
2022/03/16 00:26:15;;;;;;;11.05;8.20;;;9.20;99.90;;;;;;5055541;28;20737;-59
2022/03/16 00:28:43;;;;;;;10.63;8.57;;;9.20;99.90;;;;;;5055371;28;20508;-59
2022/03/16 00:31:10;;;;;;;16.10;10.82;;;9.20;99.90;;;;;;5054873;28;20539;-59
2022/03/16 00:33:37;;;;;;;15.40;10.27;;;9.10;99.90;;;;;;5055775;28;20841;-59
2022/03/16 00:36:05;;;;;;;32.30;21.33;;;9.00;99.90;;;;;;5055706;28;20439;-59
2022/03/16 00:38:32;;;;;;;19.08;12.82;;;8.90;99.90;;;;;;5055654;28;20425;-59
2022/03/16 00:40:58;;;;;;;13.75;10.15;;;8.80;99.90;;;;;;5055529;28;20433;-59
2022/03/16 00:43:25;;;;;;;14.65;10.48;;;8.80;99.90;;;;;;5056107;28;20507;-58
2022/03/16 00:45:53;;;;;;;12.57;8.63;;;8.90;99.90;;;;;;5055320;28;20511;-59
2022/03/16 00:48:20;;;;;;;12.88;9.35;;;8.90;99.90;;;;;;5054693;28;20508;-58
2022/03/16 00:50:47;;;;;;;11.77;9.25;;;8.90;99.90;;;;;;5053141;28;20435;-59
2022/03/16 00:53:14;;;;;;;13.93;10.10;;;9.10;99.90;;;;;;5053815;28;20426;-59
2022/03/16 00:55:41;;;;;;;13.97;9.50;;;8.90;99.90;;;;;;5052240;28;20527;-58
2022/03/16 00:58:08;;;;;;;14.45;10.50;;;9.00;99.90;;;;;;5053039;28;20516;-59
2022/03/16 01:00:35;;;;;;;14.02;9.75;;;9.00;99.90;;;;;;5052468;28;20720;-59
2022/03/16 01:03:03;;;;;;;15.18;10.57;;;8.90;99.90;;;;;;5054260;28;20467;-59
2022/03/16 01:05:30;;;;;;;13.27;9.43;;;9.00;99.90;;;;;;5053160;28;20466;-60
2022/03/16 01:07:56;;;;;;;14.30;9.43;;;8.90;99.90;;;;;;5053936;28;20588;-59
2022/03/16 01:10:23;;;;;;;15.00;10.68;;;9.00;99.90;;;;;;5052969;28;20703;-59
2022/03/16 01:12:53;;;;;;;13.82;9.40;;;9.00;99.90;;;;;;5054733;28;20511;-59
2022/03/16 01:15:23;;;;;;;15.77;10.83;;;9.00;99.90;;;;;;5052081;28;20433;-59
2022/03/16 01:17:50;;;;;;;12.85;10.10;;;9.00;99.90;;;;;;5053478;28;20433;-59
2022/03/16 01:20:18;;;;;;;14.87;10.87;;;8.90;99.90;;;;;;5052683;28;20432;-59
2022/03/16 01:22:45;;;;;;;13.00;10.02;;;9.00;99.90;;;;;;5054898;28;20422;-59
2022/03/16 01:25:12;;;;;;;14.27;10.63;;;9.10;99.90;;;;;;5054545;28;20429;-58
2022/03/16 01:27:40;;;;;;;14.95;11.05;;;9.20;99.90;;;;;;5055002;28;20501;-59
2022/03/16 01:30:08;;;;;;;16.60;11.50;;;9.10;99.90;;;;;;5054371;28;20548;-59
2022/03/16 01:32:35;;;;;;;15.27;10.90;;;9.00;99.90;;;;;;5054054;28;20516;-60
2022/03/16 01:35:02;;;;;;;17.23;11.77;;;8.90;99.90;;;;;;5051883;28;20523;-59
2022/03/16 01:37:30;;;;;;;17.90;12.27;;;8.80;99.90;;;;;;5052363;28;20952;-59
2022/03/16 01:39:57;;;;;;;16.77;11.75;;;8.80;99.90;;;;;;5052114;28;20814;-59
2022/03/16 01:42:25;;;;;;;16.95;11.82;;;8.80;99.90;;;;;;5052751;28;20861;-59
2022/03/16 01:44:54;;;;;;;15.15;12.15;;;8.90;99.90;;;;;;5051602;28;20448;-59
2022/03/16 01:47:22;;;;;;;16.37;11.77;;;8.90;99.90;;;;;;5051877;28;20432;-59
2022/03/16 01:49:50;;;;;;;15.52;11.70;;;8.90;99.90;;;;;;5052116;28;20463;-59
2022/03/16 01:52:20;;;;;;;17.50;12.48;;;9.00;99.90;;;;;;5053767;28;20475;-59
2022/03/16 01:54:49;;;;;;;15.02;11.63;;;9.00;99.90;;;;;;5053064;28;20431;-58
2022/03/16 01:57:16;;;;;;;18.48;12.73;;;9.00;99.90;;;;;;5072160;28;20734;-58
2022/03/16 01:59:43;;;;;;;17.73;12.35;;;8.90;99.90;;;;;;5073998;28;20428;-58
2022/03/16 02:02:11;;;;;;;16.43;12.27;;;8.80;99.90;;;;;;5074993;28;20420;-59
2022/03/16 02:04:39;;;;;;;17.38;11.95;;;8.70;99.90;;;;;;5064393;28;20526;-59
2022/03/16 02:07:06;;;;;;;18.70;13.55;;;8.70;99.90;;;;;;5074497;28;20466;-58
2022/03/16 02:09:33;;;;;;;17.58;12.25;;;8.60;99.90;;;;;;5074699;28;20439;-58
2022/03/16 02:12:02;;;;;;;19.65;12.00;;;8.60;99.90;;;;;;5073778;28;20801;-58
2022/03/16 02:14:29;;;;;;;16.80;11.57;;;8.60;99.90;;;;;;5064173;28;20928;-59
2022/03/16 02:16:58;;;;;;;17.98;12.75;;;8.70;99.90;;;;;;5054115;28;20437;-60
2022/03/16 02:19:25;;;;;;;19.87;12.90;;;8.80;99.90;;;;;;5053918;28;20733;-60
2022/03/16 02:21:58;;;;;;;16.97;12.63;;;8.90;99.90;;;;;;5052917;28;20523;-59
2022/03/16 02:24:29;;;;;;;17.02;12.60;;;8.90;99.90;;;;;;5057645;28;20429;-60
2022/03/16 02:26:56;;;;;;;17.90;12.93;;;8.90;99.90;;;;;;5058123;28;20544;-60
2022/03/16 02:29:22;;;;;;;19.83;14.38;;;8.90;99.90;;;;;;5057722;28;20872;-59
2022/03/16 02:31:49;;;;;;;18.00;12.20;;;8.90;99.90;;;;;;5057237;28;20487;-59
2022/03/16 02:34:16;;;;;;;20.42;13.25;;;8.80;99.90;;;;;;5058194;28;20512;-60
2022/03/16 02:36:43;;;;;;;19.75;13.13;;;8.80;99.90;;;;;;5057847;28;20444;-60
2022/03/16 02:39:10;;;;;;;19.65;13.52;;;8.90;99.90;;;;;;5057865;28;20463;-59
2022/03/16 02:41:38;;;;;;;18.83;12.87;;;8.80;99.90;;;;;;5055568;28;20504;-59
2022/03/16 02:44:06;;;;;;;17.33;11.98;;;8.80;99.90;;;;;;5055975;28;20461;-59
2022/03/16 02:46:33;;;;;;;20.27;12.48;;;8.90;99.90;;;;;;5055601;28;20460;-59
2022/03/16 02:49:00;;;;;;;21.93;14.70;;;8.90;99.90;;;;;;5055482;28;20460;-59
2022/03/16 02:51:27;;;;;;;24.23;16.10;;;8.80;99.90;;;;;;5054365;28;20433;-59
2022/03/16 02:53:54;;;;;;;20.67;14.18;;;8.80;99.90;;;;;;5055625;28;20508;-60
2022/03/16 02:56:21;;;;;;;20.15;13.52;;;8.70;99.90;;;;;;5056122;28;20867;-59
2022/03/16 02:58:49;;;;;;;24.63;14.98;;;8.80;99.90;;;;;;5057430;28;20527;-59
2022/03/16 03:01:16;;;;;;;22.92;14.60;;;8.90;99.90;;;;;;5056434;28;20523;-60
2022/03/16 03:03:43;;;;;;;22.38;14.38;;;8.90;99.90;;;;;;5057345;28;20520;-62
2022/03/16 03:06:10;;;;;;;23.55;15.43;;;8.90;99.90;;;;;;5056970;28;20429;-59
2022/03/16 03:08:37;;;;;;;22.77;15.87;;;8.80;99.90;;;;;;5056665;28;20504;-60
2022/03/16 03:11:04;;;;;;;24.73;14.90;;;8.70;99.90;;;;;;5055313;28;20913;-59
2022/03/16 03:13:31;;;;;;;23.05;15.30;;;8.70;99.90;;;;;;5056629;28;20502;-60
2022/03/16 03:15:59;;;;;;;24.85;16.13;;;8.60;99.90;;;;;;5055738;28;20891;-59
2022/03/16 03:18:26;;;;;;;26.25;17.77;;;8.50;99.90;;;;;;5062257;28;20515;-59
2022/03/16 03:20:53;;;;;;;26.98;17.85;;;8.50;99.90;;;;;;5075313;28;20922;-60
2022/03/16 03:23:19;;;;;;;24.97;16.20;;;8.50;99.90;;;;;;5076521;28;20426;-60
2022/03/16 03:25:46;;;;;;;27.45;16.88;;;8.60;99.90;;;;;;5075313;28;20431;-60
2022/03/16 03:28:14;;;;;;;25.23;15.98;;;8.60;99.90;;;;;;5057072;28;20904;-60
2022/03/16 03:30:41;;;;;;;27.73;17.15;;;8.60;99.90;;;;;;5055289;28;20472;-59
2022/03/16 03:33:09;;;;;;;25.13;15.02;;;8.50;99.90;;;;;;5056208;28;20511;-60
2022/03/16 03:35:36;;;;;;;25.10;15.90;;;8.60;99.90;;;;;;5056034;28;20475;-59
2022/03/16 03:38:03;;;;;;;25.95;15.60;;;8.70;99.90;;;;;;5056681;28;20528;-60
2022/03/16 03:40:30;;;;;;;24.33;15.02;;;8.70;99.90;;;;;;5056524;28;20494;-59
2022/03/16 03:42:57;;;;;;;22.70;15.75;;;8.80;99.90;;;;;;5057050;28;20500;-60
2022/03/16 03:45:24;;;;;;;21.83;14.82;;;8.80;99.90;;;;;;5056083;28;20790;-60
2022/03/16 03:47:51;;;;;;;24.35;14.55;;;8.80;99.90;;;;;;5056602;28;20453;-60
2022/03/16 03:50:19;;;;;;;21.75;13.95;;;8.90;99.90;;;;;;5055782;28;20436;-60
2022/03/16 03:52:46;;;;;;;23.30;15.87;;;8.90;99.90;;;;;;5056382;28;20471;-59
2022/03/16 03:55:13;;;;;;;25.02;15.35;;;8.80;99.90;;;;;;5055778;28;21007;-60
2022/03/16 03:57:40;;;;;;;23.70;15.77;;;8.80;99.90;;;;;;5056404;28;20876;-59
2022/03/16 04:00:08;;;;;;;26.27;16.17;;;9.00;99.90;;;;;;5056147;28;20758;-59
2022/03/16 04:02:35;;;;;;;24.80;15.60;;;9.00;99.90;;;;;;5055829;28;20921;-59
2022/03/16 04:05:03;;;;;;;24.17;15.50;;;8.90;99.90;;;;;;5071535;28;20442;-59
2022/03/16 04:07:32;;;;;;;25.40;16.40;;;9.00;99.90;;;;;;5075922;28;20435;-59
2022/03/16 04:09:59;;;;;;;24.88;16.65;;;8.80;99.90;;;;;;5074760;28;20494;-59
2022/03/16 04:12:26;;;;;;;22.88;15.00;;;8.80;99.90;;;;;;5062686;28;20439;-59
2022/03/16 04:14:53;;;;;;;26.90;17.17;;;8.70;99.90;;;;;;5054703;28;20432;-59
2022/03/16 04:17:20;;;;;;;27.30;16.53;;;8.80;99.90;;;;;;5056035;28;20472;-59
2022/03/16 04:19:47;;;;;;;24.45;15.15;;;8.70;99.90;;;;;;5054753;28;20488;-59
2022/03/16 04:22:14;;;;;;;26.92;17.27;;;8.70;99.90;;;;;;5055862;28;20425;-59
2022/03/16 04:24:42;;;;;;;27.95;17.05;;;8.70;99.90;;;;;;5055288;28;20758;-59
2022/03/16 04:27:09;;;;;;;25.88;16.23;;;8.70;99.90;;;;;;5055938;28;20425;-60
2022/03/16 04:29:36;;;;;;;28.27;16.40;;;8.60;99.90;;;;;;5055524;28;20464;-60
2022/03/16 04:32:03;;;;;;;24.38;16.35;;;8.70;99.90;;;;;;5055133;28;20520;-60
2022/03/16 04:34:30;;;;;;;27.95;17.67;;;8.70;99.90;;;;;;5056136;28;20786;-60
2022/03/16 04:36:57;;;;;;;28.45;16.17;;;8.70;99.90;;;;;;5055163;28;20528;-60
2022/03/16 04:39:24;;;;;;;28.25;17.52;;;8.80;99.90;;;;;;5054607;28;20512;-60
2022/03/16 04:41:52;;;;;;;23.67;16.08;;;8.80;99.90;;;;;;5053602;28;20429;-60
2022/03/16 04:44:19;;;;;;;28.38;17.35;;;8.80;99.90;;;;;;5054628;28;20422;-60
2022/03/16 04:46:45;;;;;;;27.27;17.35;;;8.80;99.90;;;;;;5054374;28;20425;-60
2022/03/16 04:49:12;;;;;;;25.17;16.77;;;8.70;99.90;;;;;;5054980;28;20729;-59
2022/03/16 04:51:40;;;;;;;27.30;17.50;;;8.80;99.90;;;;;;5054552;28;20433;-58
2022/03/16 04:54:07;;;;;;;25.27;16.43;;;8.80;99.90;;;;;;5054497;28;20504;-60
2022/03/16 04:56:35;;;;;;;28.67;18.00;;;8.80;99.90;;;;;;5054415;28;20427;-60
2022/03/16 04:59:03;;;;;;;24.02;16.75;;;8.70;99.90;;;;;;5053377;28;20725;-60
2022/03/16 05:01:31;;;;;;;25.60;18.02;;;8.70;99.90;;;;;;5054241;28;20427;-60
2022/03/16 05:03:57;;;;;;;26.17;17.92;;;8.80;99.90;;;;;;5053563;28;20864;-60
2022/03/16 05:06:24;;;;;;;27.23;17.50;;;8.70;99.90;;;;;;5053490;28;20520;-60
2022/03/16 05:08:51;;;;;;;29.75;18.02;;;8.80;99.90;;;;;;5054630;28;20460;-60
2022/03/16 05:11:20;;;;;;;30.15;18.38;;;8.90;99.90;;;;;;5055196;28;20427;-60
2022/03/16 05:13:47;;;;;;;26.33;17.65;;;8.90;99.90;;;;;;5054318;28;20429;-60
2022/03/16 05:16:16;;;;;;;24.60;17.35;;;8.90;99.90;;;;;;5054944;28;20860;-60
2022/03/16 05:18:45;;;;;;;25.45;16.30;;;9.00;99.90;;;;;;5052905;28;20472;-61
2022/03/16 05:21:12;;;;;;;29.25;18.40;;;9.00;99.90;;;;;;5054043;28;20505;-61
2022/03/16 05:23:40;;;;;;;27.17;16.85;;;8.80;99.90;;;;;;5053276;28;20429;-62
2022/03/16 05:26:08;;;;;;;28.08;18.45;;;8.80;99.90;;;;;;5054561;28;20479;-61
2022/03/16 05:28:35;;;;;;;25.00;17.33;;;8.60;99.90;;;;;;5053370;28;20791;-61
2022/03/16 05:31:02;;;;;;;29.95;19.50;;;8.60;99.90;;;;;;5053465;28;20414;-61
2022/03/16 05:33:30;;;;;;;26.45;16.50;;;8.60;99.90;;;;;;5052787;28;20469;-61
2022/03/16 05:35:57;;;;;;;28.52;17.92;;;8.60;99.90;;;;;;5054673;28;20493;-61
2022/03/16 05:38:24;;;;;;;30.45;18.35;;;8.70;99.90;;;;;;5053490;28;20469;-61
2022/03/16 05:40:50;;;;;;;25.13;16.40;;;8.70;99.90;;;;;;5054223;28;20421;-61
2022/03/16 05:43:17;;;;;;;26.92;18.73;;;8.60;99.90;;;;;;5068495;28;20526;-61
2022/03/16 05:45:44;;;;;;;27.58;18.23;;;8.60;99.90;;;;;;5074082;28;20920;-59
2022/03/16 05:48:11;;;;;;;26.73;16.50;;;8.60;99.90;;;;;;5073368;28;20451;-61
2022/03/16 05:50:44;;;;;;;26.07;17.47;;;8.60;99.90;;;;;;5072562;28;20502;-61
2022/03/16 05:53:11;;;;;;;30.08;17.75;;;8.60;99.90;;;;;;5052655;28;20444;-61
2022/03/16 05:55:38;;;;;;;23.60;16.50;;;8.60;99.90;;;;;;5053977;28;20788;-61
2022/03/16 05:58:05;;;;;;;27.63;17.92;;;8.70;99.90;;;;;;5060806;28;20539;-61
2022/03/16 06:00:32;;;;;;;27.27;17.55;;;8.70;99.90;;;;;;5068256;28;20433;-61
2022/03/16 06:02:59;;;;;;;26.03;16.63;;;8.80;99.90;;;;;;5064125;28;20855;-61
2022/03/16 06:05:26;;;;;;;23.20;15.48;;;8.80;99.90;;;;;;5077528;28;20510;-58
2022/03/16 06:07:55;;;;;;;26.98;16.75;;;8.70;99.90;;;;;;5076389;28;20446;-59
2022/03/16 06:10:22;;;;;;;27.45;16.45;;;8.80;99.90;;;;;;5060168;28;20499;-59
2022/03/16 06:12:53;;;;;;;26.95;17.88;;;8.80;99.90;;;;;;5054258;28;20856;-59
2022/03/16 06:15:21;;;;;;;22.95;16.75;;;8.80;99.90;;;;;;5056022;28;20460;-59
2022/03/16 06:17:48;;;;;;;28.00;17.65;;;8.80;99.90;;;;;;5055712;28;20428;-59
2022/03/16 06:20:14;;;;;;;26.90;17.42;;;8.80;99.90;;;;;;5075152;28;20518;-58
2022/03/16 06:22:41;;;;;;;26.73;18.30;;;8.80;99.90;;;;;;5074156;28;20467;-59
2022/03/16 06:25:10;;;;;;;24.83;15.90;;;8.90;99.90;;;;;;5074723;28;20495;-59
2022/03/16 06:27:37;;;;;;;25.15;17.02;;;9.10;99.90;;;;;;5065535;28;20476;-60
2022/03/16 06:30:05;;;;;;;27.10;17.92;;;9.20;99.90;;;;;;5054234;28;20929;-59
2022/03/16 06:32:31;;;;;;;26.73;18.23;;;9.30;99.90;;;;;;5053594;28;20736;-60
2022/03/16 06:34:58;;;;;;;23.95;15.60;;;9.30;99.90;;;;;;5055974;28;20507;-60
2022/03/16 06:37:25;;;;;;;25.13;17.88;;;9.10;99.90;;;;;;5054154;28;20437;-59
2022/03/16 06:39:52;;;;;;;23.67;16.20;;;9.10;99.90;;;;;;5055055;28;20496;-59
2022/03/16 06:42:20;;;;;;;29.30;18.67;;;9.20;99.90;;;;;;5054400;28;20453;-60
2022/03/16 06:44:47;;;;;;;27.92;17.20;;;9.00;99.90;;;;;;5056389;28;20507;-60
2022/03/16 06:47:14;;;;;;;28.08;17.83;;;9.00;99.90;;;;;;5054224;28;20475;-59
2022/03/16 06:49:41;;;;;;;29.63;18.95;;;9.00;99.90;;;;;;5055689;28;20497;-60
2022/03/16 06:52:08;;;;;;;27.27;18.27;;;9.00;99.90;;;;;;5053221;28;20441;-59
2022/03/16 06:54:35;;;;;;;28.23;16.55;;;9.00;99.90;;;;;;5053322;28;20491;-59
2022/03/16 06:57:02;;;;;;;24.98;16.10;;;9.10;99.90;;;;;;5054779;28;20425;-60
2022/03/16 06:59:30;;;;;;;28.48;18.25;;;9.20;99.90;;;;;;5056299;28;20524;-59
2022/03/16 07:01:57;;;;;;;25.80;16.75;;;9.40;99.90;;;;;;5055438;28;20421;-60
2022/03/16 07:04:24;;;;;;;25.05;15.50;;;9.40;99.90;;;;;;5056831;28;20891;-59
2022/03/16 07:06:51;;;;;;;23.65;15.60;;;9.40;99.90;;;;;;5054932;28;20500;-59
2022/03/16 07:09:18;;;;;;;28.40;17.27;;;9.40;99.90;;;;;;5054185;28;20527;-59
2022/03/16 07:11:45;;;;;;;26.57;15.83;;;9.50;99.90;;;;;;5054342;28;20522;-59
2022/03/16 07:16:57;;;;;;;27.02;17.88;;;9.80;99.90;;;;;;5073630;28;20411;-60
2022/03/16 07:19:25;;;;;;;25.63;16.52;;;9.70;99.90;;;;;;5073640;28;21082;-59
2022/03/16 07:21:52;;;;;;;27.25;16.58;;;9.70;99.90;;;;;;5064256;28;20870;-60
2022/03/16 07:24:18;;;;;;;25.20;15.38;;;9.60;99.90;;;;;;5074474;28;20481;-60
2022/03/16 07:26:45;;;;;;;25.80;16.33;;;9.60;99.90;;;;;;5073842;28;20424;-60
2022/03/16 07:29:12;;;;;;;25.38;15.13;;;9.50;99.90;;;;;;5071556;28;20481;-60
2022/03/16 07:31:39;;;;;;;26.23;16.63;;;9.60;99.90;;;;;;5070546;28;20423;-57
2022/03/16 07:34:07;;;;;;;25.13;15.20;;;9.80;99.90;;;;;;5075728;28;20510;-54
2022/03/16 07:36:34;;;;;;;23.55;15.30;;;9.90;99.90;;;;;;5074804;28;20454;-56
2022/03/16 07:39:01;;;;;;;26.35;17.13;;;9.90;99.90;;;;;;5073088;28;20438;-57
2022/03/16 07:41:28;;;;;;;26.75;14.88;;;9.90;99.90;;;;;;5072967;28;20430;-54
2022/03/16 07:43:55;;;;;;;22.23;13.50;;;9.80;99.90;;;;;;5070647;28;20485;-59
2022/03/16 07:46:21;;;;;;;22.08;13.95;;;9.80;99.90;;;;;;5073788;28;20423;-58
2022/03/16 07:48:48;;;;;;;21.88;14.23;;;9.80;99.90;;;;;;5065416;28;21001;-54
2022/03/16 07:51:16;;;;;;;20.75;12.80;;;9.80;99.90;;;;;;5065962;28;20426;-58
2022/03/16 07:53:43;;;;;;;19.98;11.98;;;9.90;99.90;;;;;;5069780;28;20433;-59
2022/03/16 07:56:10;;;;;;;18.85;12.30;;;9.80;99.90;;;;;;5073424;28;20432;-58
2022/03/16 07:58:38;;;;;;;19.10;11.40;;;9.70;99.90;;;;;;5072302;28;20437;-59
2022/03/16 08:01:06;;;;;;;19.50;12.63;;;9.60;99.90;;;;;;5066656;28;20469;-59
2022/03/16 08:03:47;;;;;;;16.05;10.85;;;9.60;99.90;;;;;;5072033;28;20497;-59
2022/03/16 08:06:16;;;;;;;18.60;12.80;;;9.50;99.90;;;;;;5070468;28;20960;-59
2022/03/16 08:08:43;;;;;;;20.48;13.82;;;9.50;99.90;;;;;;5071138;28;20910;-59
2022/03/16 08:11:10;;;;;;;18.90;11.65;;;9.40;99.90;;;;;;5073817;28;20423;-59
2022/03/16 08:13:37;;;;;;;69.10;18.23;;;9.40;99.90;;;;;;5070350;28;20435;-59
2022/03/16 08:16:04;;;;;;;19.92;11.48;;;9.20;99.90;;;;;;5075494;28;20420;-59
2022/03/16 08:18:31;;;;;;;17.58;11.00;;;9.20;99.90;;;;;;5072999;28;20530;-59
2022/03/16 08:20:58;;;;;;;17.48;10.90;;;9.30;99.90;;;;;;5072530;28;20463;-59
2022/03/16 08:23:26;;;;;;;19.33;11.13;;;9.50;99.90;;;;;;5070922;28;20470;-59
2022/03/16 08:25:55;;;;;;;17.10;10.90;;;9.60;99.90;;;;;;5071945;28;20459;-59
2022/03/16 08:28:22;;;;;;;16.70;10.87;;;9.60;99.90;;;;;;5073086;28;20438;-59
2022/03/16 08:30:49;;;;;;;16.85;10.20;;;9.50;99.90;;;;;;5071299;28;20598;-59
2022/03/16 08:33:18;;;;;;;16.77;10.35;;;9.40;99.90;;;;;;5071978;28;20751;-59
2022/03/16 08:35:44;;;;;;;18.13;11.63;;;9.50;99.90;;;;;;5072159;28;20428;-59
2022/03/16 08:38:11;;;;;;;16.17;10.85;;;9.50;99.90;;;;;;5070700;28;20435;-59
2022/03/16 08:40:41;;;;;;;17.42;10.15;;;9.70;99.90;;;;;;5065025;28;20476;-59
2022/03/16 08:43:08;;;;;;;17.80;11.25;;;9.90;99.90;;;;;;5071395;28;20522;-59
2022/03/16 08:45:35;;;;;;;16.52;10.27;;;10.00;99.90;;;;;;5072703;28;20502;-59
2022/03/16 08:48:03;;;;;;;16.23;9.93;;;10.10;99.90;;;;;;5071419;28;20894;-59
2022/03/16 08:50:30;;;;;;;16.02;10.15;;;10.20;99.90;;;;;;5063462;28;20434;-59
2022/03/16 08:52:57;;;;;;;16.70;10.27;;;10.10;99.90;;;;;;5071772;28;20428;-59
2022/03/16 08:55:25;;;;;;;18.55;11.75;;;10.30;99.90;;;;;;5073133;28;20434;-59
2022/03/16 08:57:53;;;;;;;17.42;13.07;;;10.20;99.90;;;;;;5067539;28;20443;-59
2022/03/16 09:00:20;;;;;;;18.33;11.25;;;10.20;99.90;;;;;;5064607;28;20462;-59
2022/03/16 09:02:47;;;;;;;18.77;11.60;;;10.10;99.90;;;;;;5073167;28;20804;-59
2022/03/16 09:05:15;;;;;;;16.08;9.50;;;9.90;99.90;;;;;;5067938;28;20519;-59
2022/03/16 09:07:42;;;;;;;15.53;10.33;;;10.20;99.90;;;;;;5067681;28;20431;-60
2022/03/16 09:10:10;;;;;;;15.85;9.75;;;10.30;99.90;;;;;;5070528;28;20774;-59
2022/03/16 09:12:37;;;;;;;16.67;9.40;;;10.20;99.90;;;;;;5070242;28;20536;-59
2022/03/16 09:15:07;;;;;;;16.48;10.32;;;10.20;99.90;;;;;;5068526;28;20502;-59
2022/03/16 09:17:34;;;;;;;16.50;9.73;;;10.20;99.90;;;;;;5060432;28;20542;-59
2022/03/16 09:20:01;;;;;;;14.70;9.70;;;10.30;99.90;;;;;;5070942;28;20470;-60
2022/03/16 09:22:28;;;;;;;15.20;9.75;;;10.30;99.90;;;;;;5070232;28;20534;-59
2022/03/16 09:24:56;;;;;;;16.23;9.75;;;10.00;99.90;;;;;;5073308;28;21122;-59
2022/03/16 09:27:23;;;;;;;16.75;9.90;;;10.00;99.90;;;;;;5070271;28;20436;-59
2022/03/16 09:29:50;;;;;;;13.25;9.48;;;10.00;99.90;;;;;;5070799;28;20411;-59
2022/03/16 09:32:21;;;;;;;17.45;10.82;;;10.00;99.90;;;;;;5067587;28;20709;-59
2022/03/16 09:34:48;;;;;;;17.25;11.32;;;10.00;99.90;;;;;;5066607;28;20431;-59
2022/03/16 09:37:15;;;;;;;14.25;10.18;;;9.90;99.90;;;;;;5070042;28;20439;-59
2022/03/16 09:39:43;;;;;;;14.80;9.00;;;10.00;99.90;;;;;;5052516;28;20640;-59
2022/03/16 09:42:10;;;;;;;17.43;11.60;;;10.30;99.90;;;;;;5067282;28;20459;-59
2022/03/16 09:44:37;;;;;;;15.85;9.15;;;10.40;99.90;;;;;;5071191;28;20518;-59
2022/03/16 09:47:09;;;;;;;18.50;12.52;;;10.60;99.90;;;;;;5064188;28;20474;-60
2022/03/16 09:49:38;;;;;;;17.65;11.02;;;10.50;99.90;;;;;;5070775;28;20510;-59
2022/03/16 09:52:09;;;;;;;17.73;11.90;;;10.60;99.90;;;;;;5070969;28;20423;-60
2022/03/16 09:54:36;;;;;;;21.33;10.80;;;10.40;99.90;;;;;;5069580;28;20426;-59
2022/03/16 09:57:03;;;;;;;20.20;12.35;;;10.40;99.90;;;;;;5063443;28;20845;-61
2022/03/16 09:59:30;;;;;;;16.02;10.70;;;10.40;99.90;;;;;;5056456;28;20432;-60
2022/03/16 10:01:59;;;;;;;20.73;12.45;;;10.30;99.90;;;;;;5068327;28;21554;-60
2022/03/16 10:04:30;;;;;;;18.13;10.48;;;10.50;99.90;;;;;;5070698;28;20439;-59
2022/03/16 10:07:01;;;;;;;15.32;9.68;;;10.50;99.90;;;;;;5066834;28;20767;-59
2022/03/16 10:15:02;;;;;;;19.90;10.40;;;11.10;99.90;;;;;;5070037;28;20705;-59
2022/03/16 10:17:45;;;;;;;16.23;9.40;;;11.30;99.90;;;;;;5070262;28;20530;-59
2022/03/16 10:20:20;;;;;;;13.30;9.98;;;11.40;99.90;;;;;;5069820;28;20731;-59
2022/03/16 10:22:58;;;;;;;12.88;8.60;;;11.20;99.90;;;;;;5067713;28;20434;-59
2022/03/16 10:25:26;;;;;;;11.48;8.48;;;11.20;99.90;;;;;;5070754;28;20764;-59
2022/03/16 10:27:53;;;;;;;11.85;7.80;;;11.10;98.80;;;;;;5068261;28;20488;-59
2022/03/16 10:30:20;;;;;;;10.48;7.63;;;10.90;89.90;;;;;;5065225;28;20420;-59
2022/03/16 10:32:54;;;;;;;11.20;7.20;;;11.00;99.90;;;;;;5068406;28;20543;-59
2022/03/16 10:35:23;;;;;;;9.68;7.03;;;10.90;98.90;;;;;;5063052;28;20421;-60
2022/03/16 10:37:51;;;;;;;11.38;6.97;;;11.10;92.10;;;;;;5067764;28;20751;-59
2022/03/16 10:40:26;;;;;;;11.75;7.13;;;11.40;88.30;;;;;;5069479;28;20431;-60
2022/03/16 10:48:24;;;;;;;10.70;6.85;;;12.00;18.50;;;;;;5068726;28;20411;-56
2022/03/16 10:50:57;;;;;;;10.35;6.70;;;11.90;22.30;;;;;;5075950;28;20634;-55
2022/03/16 10:53:28;;;;;;;9.70;6.43;;;12.20;10.20;;;;;;5072153;28;20425;-57
2022/03/16 10:55:59;;;;;;;8.75;6.53;;;12.20;3.00;;;;;;5075023;28;20507;-58
2022/03/16 10:58:28;;;;;;;10.05;7.18;;;12.20;2.50;;;;;;5074325;28;20427;-57
2022/03/16 11:00:57;;;;;;;11.02;6.95;;;12.00;1.00;;;;;;5074275;28;20435;-56
2022/03/16 11:03:27;;;;;;;11.10;7.60;;;11.70;21.10;;;;;;5073670;28;20435;-57
2022/03/16 11:05:56;;;;;;;13.60;7.97;;;11.60;22.30;;;;;;5073261;28;20427;-57
2022/03/16 11:08:25;;;;;;;9.63;6.78;;;11.70;24.60;;;;;;5071900;28;20527;-58
2022/03/16 11:10:52;;;;;;;10.15;6.80;;;11.70;44.30;;;;;;5071698;28;20848;-57
2022/03/16 11:13:31;;;;;;;8.85;6.63;;;12.10;6.60;;;;;;5073454;28;20455;-56
2022/03/16 11:16:00;;;;;;;9.88;6.82;;;12.40;8.50;;;;;;5073620;28;20457;-56
2022/03/16 11:18:27;;;;;;;9.40;6.70;;;12.70;1.00;;;;;;5071772;28;20777;-58
2022/03/16 11:20:58;;;;;;;11.85;6.90;;;12.70;1.00;;;;;;5070872;28;20431;-58
2022/03/16 11:26:27;;;;;;;10.45;6.03;;;12.70;1.00;;;;;;5073359;28;20410;-58
2022/03/16 11:29:09;;;;;;;8.98;6.00;;;12.80;1.00;;;;;;5068283;28;20518;-59
2022/03/16 11:31:36;;;;;;;8.15;6.10;;;13.10;1.00;;;;;;5071112;28;20809;-58
2022/03/16 11:34:10;;;;;;;10.65;6.68;;;13.00;1.00;;;;;;5073614;28;20489;-58
2022/03/16 11:36:40;;;;;;;10.57;6.55;;;13.10;1.00;;;;;;5074816;28;20515;-59
2022/03/16 11:39:17;;;;;;;8.40;5.95;;;13.40;1.00;;;;;;5072846;28;20431;-58
2022/03/16 11:41:51;;;;;;;10.18;6.30;;;13.30;1.00;;;;;;5068097;28;20449;-58
2022/03/16 11:44:32;;;;;;;9.35;7.15;;;13.20;1.00;;;;;;5070256;28;20510;-58
2022/03/16 11:47:33;;;;;;;8.57;5.38;;;13.00;1.00;;;;;;5069029;28;20427;-58
2022/03/16 11:50:13;;;;;;;8.30;5.83;;;13.00;1.00;;;;;;5071048;28;20477;-58
2022/03/16 11:53:00;;;;;;;10.40;6.30;;;13.40;1.00;;;;;;5068641;28;20438;-58
2022/03/16 11:55:45;;;;;;;8.07;5.53;;;13.60;1.00;;;;;;5071045;28;20419;-58
2022/03/16 11:58:25;;;;;;;9.73;6.82;;;13.70;1.00;;;;;;5070294;28;20782;-58
2022/03/16 12:01:26;;;;;;;9.95;6.82;;;13.80;1.00;;;;;;5063306;28;20439;-58
2022/03/16 12:03:58;;;;;;;8.95;5.85;;;13.70;1.00;;;;;;5065879;28;21044;-58
2022/03/16 12:06:30;;;;;;;9.70;6.93;;;13.70;1.00;;;;;;5071707;28;20420;-58
2022/03/16 12:09:03;;;;;;;8.23;6.47;;;13.90;1.00;;;;;;5068829;28;20851;-58
2022/03/16 12:15:15;;;;;;;14.57;9.13;;;13.90;1.00;;;;;;5070746;28;20403;-58
2022/03/16 12:18:31;;;;;;;11.85;7.53;;;14.00;1.00;;;;;;5072492;28;20430;-58
2022/03/16 12:21:06;;;;;;;10.63;7.70;;;14.00;1.00;;;;;;5063333;28;20444;-58
2022/03/16 12:23:46;;;;;;;9.90;6.43;;;14.20;1.00;;;;;;5068297;28;20487;-59
2022/03/16 12:26:13;;;;;;;8.00;6.28;;;14.10;1.00;;;;;;5065985;28;20547;-58
2022/03/16 12:28:59;;;;;;;9.88;7.10;;;13.70;1.00;;;;;;5058762;28;20518;-59
2022/03/16 12:31:26;;;;;;;6.95;5.13;;;13.50;1.00;;;;;;5068578;28;20419;-59
2022/03/16 12:33:56;;;;;;;7.65;6.05;;;13.50;1.00;;;;;;5070535;28;20505;-59
2022/03/16 12:36:25;;;;;;;10.15;6.65;;;13.70;1.00;;;;;;5067772;28;20416;-59
2022/03/16 12:38:56;;;;;;;9.80;6.82;;;13.70;1.00;;;;;;5071353;28;20439;-58
2022/03/16 12:44:10;;;;;;;10.63;6.90;;;13.20;1.00;;;;;;5064520;28;20564;-59
2022/03/16 12:46:47;;;;;;;8.10;6.65;;;13.40;1.00;;;;;;5068862;28;20427;-57
2022/03/16 12:49:18;;;;;;;9.07;5.95;;;13.70;1.00;;;;;;5071168;28;20428;-60
2022/03/16 12:51:47;;;;;;;11.07;6.10;;;13.80;1.00;;;;;;5068406;28;20506;-59
2022/03/16 12:54:20;;;;;;;9.53;6.60;;;13.90;1.00;;;;;;5071201;28;20523;-60
2022/03/16 12:56:51;;;;;;;9.93;7.63;;;13.90;1.00;;;;;;5066058;28;21654;-59
2022/03/16 12:59:22;;;;;;;11.15;6.50;;;13.60;1.00;;;;;;5071449;28;20533;-59
2022/03/16 13:01:50;;;;;;;7.80;6.18;;;13.60;1.00;;;;;;5070190;28;20436;-59
2022/03/16 13:04:20;;;;;;;8.60;6.38;;;13.60;1.00;;;;;;5063992;28;20434;-59
2022/03/16 13:06:48;;;;;;;8.13;5.80;;;13.70;1.00;;;;;;5070248;28;20420;-60
2022/03/16 13:09:15;;;;;;;7.82;6.15;;;13.70;1.00;;;;;;5063475;28;20866;-61
2022/03/16 13:11:42;;;;;;;7.43;5.45;;;13.70;1.00;;;;;;5067232;28;20506;-59